< Cyclone 201409 2014 Season Cyclone 201413 >
Cyclone 201410 (Edna)
General InformationTrack Information on Google MapsDetailed Wind InformationList of All Images || ResourceGoogle EarthGE AnimationAtom FeedGeoJSON
Detalied Best Track (Time Zone = UTC)
Year Month Day Hour Lat. Long. Pressure (hPa) Wind (kt) Class Image Chart
2014 1 31 15 -18.3 151.5 999 30 2 Image --
2014 1 31 18 -19.0 152.0 997 35 3 Image --
2014 1 31 21 -19.8 152.5 997 35 3 Image --
2014 2 1 00 -20.1 152.9 992 40 3 Image --
2014 2 1 03 -20.4 153.3 994 35 3 Image --
2014 2 1 06 -20.7 153.3 992 35 3 Image --
2014 2 1 09 -20.8 152.3 995 35 3 Image --
2014 2 1 12 -20.8 152.2 996 30 2 Image --
2014 2 2 00 -19.8 150.5 999 25 2 Image --
2014 2 2 03 -19.4 150.3 999 25 2 Image --
2014 2 2 06 -18.9 150.3 998 25 2 Image --
2014 2 2 12 -17.0 150.6 998 25 2 Image --
2014 2 2 18 -15.4 151.6 998 30 2 Image --
2014 2 3 00 -14.5 152.8 997.5 30 0 Image --
2014 2 3 03 -13.7 154.2 997 30 2 Image --
2014 2 3 06 -13.7 154.5 996 30 2 Image --
2014 2 3 09 -13.6 155.3 998 30 0 Image --
2014 2 3 12 -13.9 155.6 1000 30 2 Image --
2014 2 3 18 -14.0 156.9 998 25 2 Image --
2014 2 4 03 -14.4 159.8 994 35 3 Image --
2014 2 4 12 -16.8 161.6 995 35 3 Image --
2014 2 4 18 -18.7 162.4 995 35 3 Image --
2014 2 5 00 -20.4 162.9 995 35 3 Image --
2014 2 5 06 -21.9 164.4 988 0 0 Image --
< Cyclone 201409 2014 Season Cyclone 201413 >

Help